Terminal Aerodrome Forecast
Issued by NWS

Home | Current Version | Previous Version | Text Only | Print | Product List | Glossary On
Versions: 1 2 3 4 5 6 7 8 9 10 11 12 13 14 15 16 17 18 19 20 21 22 23 24 25
000
FTUS42 KGSP 221137
TAFAND
TAF
KAND 221137Z 2212/2312 18005KT 6SM BR OVC007
     FM221400 19005KT P6SM OVC013
     FM221600 21006KT P6SM BKN023
     FM221800 21006KT P6SM BKN045
     FM222300 18004KT P6SM SCT080
     FM230700 VRB02KT 6SM BR BKN015
     FM230900 VRB02KT 4SM BR BKN005=

USA.gov is the U.S. government's official web portal to all federal, state and local government web resources and services.